Time;durP1;ratioP1;P1;durP2;ratioP2;P2;SDS_P1;SDS_P2;PMS_P1;PMS_P2;Temp;Humidity;BMP_temperature;BMP_pressure;BME280_temperature;BME280_humidity;BME280_pressure;Samples;Min_cycle;Max_cycle;Signal;HPM_P1;HPM_P2
2021/11/12 00:15:30;;;;;;;;;94.50;68.50;;;;;7.82;70.04;101925.88;5014044;28;45633;-74
2021/11/12 00:17:55;;;;;;;;;91.50;68.25;;;;;7.80;69.89;101922.28;5015860;28;45367;-74
2021/11/12 00:20:21;;;;;;;;;91.00;72.00;;;;;7.82;70.04;101931.13;5016598;28;45536;-73
2021/11/12 00:22:47;;;;;;;;;92.50;71.50;;;;;7.77;69.99;101917.78;5015184;28;45476;-73
2021/11/12 00:25:12;;;;;;;;;92.00;70.25;;;;;7.80;69.84;101924.94;5015322;28;46828;-74
2021/11/12 00:27:38;;;;;;;;;94.50;70.25;;;;;7.78;70.03;101927.50;5016275;28;45288;-73
2021/11/12 00:35:16;;;;;;;;;95.00;70.00;;;;;7.69;69.94;101911.34;5013391;28;45614;-74
2021/11/12 00:45:31;;;;;;;;;90.50;67.25;;;;;7.71;69.92;101912.31;5014982;28;45403;-74
2021/11/12 00:48:09;;;;;;;;;92.50;67.50;;;;;7.71;70.09;101916.66;4985823;28;45253;-74
2021/11/12 00:51:08;;;;;;;;;94.25;72.00;;;;;7.66;69.94;101902.44;5014765;28;45461;-76
2021/11/12 00:55:45;;;;;;;;;95.50;68.75;;;;;7.65;70.01;101914.69;5015598;28;46387;-74
2021/11/12 00:58:13;;;;;;;;;94.00;70.00;;;;;7.61;70.13;101913.66;5009794;28;45341;-74
2021/11/12 01:00:39;;;;;;;;;87.00;68.00;;;;;7.60;69.88;101910.97;5010645;28;45393;-74
2021/11/12 01:03:04;;;;;;;;;93.25;68.50;;;;;7.52;69.78;101900.16;5014445;28;53432;-74
2021/11/12 01:05:30;;;;;;;;;95.50;68.25;;;;;7.53;69.98;101899.31;5015170;28;46004;-74
2021/11/12 01:07:59;;;;;;;;;91.00;70.50;;;;;7.63;69.87;101912.84;5013338;28;46227;-74
2021/11/12 01:10:25;;;;;;;;;86.50;66.00;;;;;7.57;69.99;101903.88;5013594;28;45275;-74
2021/11/12 01:12:53;;;;;;;;;92.25;69.75;;;;;7.60;69.78;101901.34;5015539;28;45519;-75
2021/11/12 01:15:19;;;;;;;;;92.75;67.25;;;;;7.60;69.98;101897.84;5014011;28;47510;-75
2021/11/12 01:17:45;;;;;;;;;92.25;73.25;;;;;7.59;69.68;101896.94;5015342;28;45523;-74
2021/11/12 01:20:12;;;;;;;;;90.25;67.50;;;;;7.56;69.92;101899.47;5014560;28;56285;-74
2021/11/12 01:22:38;;;;;;;;;90.00;69.00;;;;;7.56;69.90;101885.41;5015393;28;45591;-76
2021/11/12 01:25:05;;;;;;;;;91.50;67.00;;;;;7.54;69.79;101892.34;5012432;28;45285;-74
2021/11/12 01:27:32;;;;;;;;;94.50;69.00;;;;;7.53;69.90;101891.44;5010456;28;45417;-73
2021/11/12 01:29:58;;;;;;;;;89.00;67.00;;;;;7.51;69.85;101881.69;5013932;28;45892;-74
2021/11/12 01:32:26;;;;;;;;;95.50;70.50;;;;;7.53;69.95;101880.94;5014252;28;45443;-74
2021/11/12 01:34:55;;;;;;;;;93.50;66.75;;;;;7.53;69.88;101866.91;5006061;28;47323;-74
2021/11/12 01:37:22;;;;;;;;;93.00;67.25;;;;;7.52;69.92;101878.25;5014590;28;45536;-74
2021/11/12 01:39:57;;;;;;;;;95.00;67.00;;;;;7.50;69.98;101880.78;5015302;28;45246;-74
2021/11/12 01:42:24;;;;;;;;;94.25;68.00;;;;;7.52;69.99;101888.75;5015352;28;45346;-75
2021/11/12 01:45:01;;;;;;;;;92.25;69.75;;;;;7.51;70.24;101887.88;5017681;28;47370;-76
2021/11/12 01:49:54;;;;;;;;;94.25;67.75;;;;;7.50;70.01;101883.41;5016742;28;45497;-74
2021/11/12 01:52:25;;;;;;;;;93.75;71.00;;;;;7.48;70.00;101871.97;5017756;28;45615;-74
2021/11/12 01:55:11;;;;;;;;;99.00;74.50;;;;;7.48;70.08;101871.97;5017474;28;47451;-75
2021/11/12 02:00:37;;;;;;;;;92.00;68.00;;;;;7.50;70.19;101874.66;4970347;28;45676;-75
2021/11/12 02:03:03;;;;;;;;;91.25;67.50;;;;;7.49;70.15;101864.97;5002992;28;47792;-74
2021/11/12 02:05:28;;;;;;;;;89.50;63.50;;;;;7.47;69.97;101859.66;5016906;28;54380;-73
2021/11/12 02:07:54;;;;;;;;;92.25;67.25;;;;;7.50;70.00;101861.50;5017994;28;45545;-74
2021/11/12 02:10:22;;;;;;;;;92.50;67.00;;;;;7.45;70.01;101844.66;5013513;28;45506;-74
2021/11/12 02:15:16;;;;;;;;;90.75;70.00;;;;;7.48;69.93;101855.31;5017421;28;45682;-75
2021/11/12 02:17:45;;;;;;;;;93.75;67.75;;;;;7.44;69.96;101846.41;5017238;28;45563;-74
2021/11/12 02:20:25;;;;;;;;;95.75;74.75;;;;;7.42;69.82;101845.44;5017273;28;45188;-74
2021/11/12 02:22:57;;;;;;;;;94.50;67.00;;;;;7.40;69.86;101840.94;5018080;28;45547;-74
2021/11/12 02:25:56;;;;;;;;;91.25;66.75;;;;;7.42;69.60;101853.34;5006297;28;47454;-74
2021/11/12 02:28:14;;;;;;;;;92.25;68.00;;;;;7.43;69.90;101849.88;5014849;28;45510;-74
2021/11/12 02:30:41;;;;;;;;;90.50;69.25;;;;;7.42;69.48;101850.69;5017192;28;45759;-74
2021/11/12 02:33:11;;;;;;;;;90.50;66.50;;;;;7.42;69.96;101847.19;5017783;28;45663;-74
2021/11/12 02:35:39;;;;;;;;;95.50;72.00;;;;;7.40;69.80;101836.59;5017109;28;46387;-75
2021/11/12 02:38:06;;;;;;;;;94.75;68.50;;;;;7.40;69.85;101833.97;5017205;28;45345;-73
2021/11/12 02:40:32;;;;;;;;;97.00;73.00;;;;;7.37;69.85;101835.59;5017463;28;45213;-73
2021/11/12 02:42:58;;;;;;;;;93.50;69.25;;;;;7.40;70.05;101839.22;5016068;28;45561;-74
2021/11/12 02:45:23;;;;;;;;;94.75;69.25;;;;;7.38;69.74;101838.28;5017205;28;46754;-73
2021/11/12 02:47:48;;;;;;;;;96.50;69.25;;;;;7.34;69.85;101829.34;5017532;28;45461;-73
2021/11/12 02:50:15;;;;;;;;;93.25;68.25;;;;;7.33;69.92;101827.56;5016339;28;54563;-74
2021/11/12 02:52:42;;;;;;;;;94.50;69.50;;;;;7.38;69.98;101830.38;5016396;28;45422;-74
2021/11/12 02:55:07;;;;;;;;;92.75;67.00;;;;;7.38;69.82;101826.88;5010701;28;46434;-74
2021/11/12 02:57:35;;;;;;;;;93.00;67.00;;;;;7.37;69.99;101830.34;5017032;28;45321;-74
2021/11/12 03:00:02;;;;;;;;;94.00;67.50;;;;;7.33;70.00;101824.94;5016394;28;45600;-73
2021/11/12 03:02:29;;;;;;;;;92.75;67.50;;;;;7.35;69.83;101833.81;5017725;28;45413;-73
2021/11/12 03:04:55;;;;;;;;;91.75;68.00;;;;;7.31;69.80;101820.47;5016979;28;46645;-74
2021/11/12 03:07:20;;;;;;;;;92.25;67.50;;;;;7.34;70.00;101832.00;5009769;28;58658;-74
2021/11/12 03:09:46;;;;;;;;;86.50;66.75;;;;;7.33;69.89;101838.09;5016900;28;46111;-75
2021/11/12 03:12:11;;;;;;;;;92.00;66.00;;;;;7.33;69.88;101834.56;5016765;28;45682;-73
2021/11/12 03:14:36;;;;;;;;;90.50;66.00;;;;;7.30;69.88;101822.22;5015917;28;45632;-74
2021/11/12 03:17:02;;;;;;;;;89.25;65.00;;;;;7.29;69.83;101828.28;5016926;28;45425;-75
2021/11/12 03:19:29;;;;;;;;;88.00;63.25;;;;;7.30;69.98;101823.94;5016883;28;45471;-73
2021/11/12 03:22:01;;;;;;;;;83.50;60.25;;;;;7.28;69.67;101821.25;5017025;28;45487;-74
2021/11/12 04:02:45;;;;;;;;;77.25;56.75;;;;;7.15;69.86;101807.56;5016324;28;45457;-74
2021/11/12 05:09:55;;;;;;;;;63.25;46.00;;;;;7.50;70.54;101683.72;5016672;28;45460;-73
2021/11/12 05:50:21;;;;;;;;;58.00;40.50;;;;;7.49;70.60;101667.91;5018883;28;45357;-75
2021/11/12 05:55:31;;;;;;;;;54.25;42.50;;;;;7.57;70.50;101667.34;5018040;28;45524;-73
2021/11/12 05:57:58;;;;;;;;;51.25;41.50;;;;;7.62;70.61;101670.16;5016955;28;45135;-73
2021/11/12 06:00:23;;;;;;;;;54.25;40.75;;;;;7.66;70.72;101672.03;5016743;28;46719;-73
2021/11/12 06:02:49;;;;;;;;;49.50;39.25;;;;;7.71;70.48;101673.09;5010209;28;49793;-73
2021/11/12 06:05:17;;;;;;;;;55.00;42.75;;;;;7.77;70.52;101677.66;5016194;28;46373;-73
2021/11/12 06:07:42;;;;;;;;;60.50;42.75;;;;;7.76;70.43;101679.41;5011773;28;45527;-74
2021/11/12 06:10:07;;;;;;;;;46.50;41.75;;;;;7.83;70.52;101683.16;5012845;28;45965;-75
2021/11/12 06:12:33;;;;;;;;;58.75;43.75;;;;;7.86;70.31;101670.13;5016633;28;45525;-73
2021/11/12 06:14:58;;;;;;;;;52.00;41.00;;;;;7.84;70.25;101662.19;5014710;28;46233;-73
2021/11/12 06:17:24;;;;;;;;;55.00;42.00;;;;;7.86;70.48;101659.59;5012417;28;52995;-73
2021/11/12 06:19:49;;;;;;;;;51.25;42.25;;;;;7.91;70.44;101668.53;5133525;23;45289;-73
2021/11/12 06:22:15;;;;;;;;;64.50;45.00;;;;;7.93;70.31;101656.34;5031165;28;45407;-73
2021/11/12 06:24:40;;;;;;;;;54.25;41.00;;;;;7.94;70.34;101670.41;5020510;28;45819;-73
2021/11/12 06:27:06;;;;;;;;;53.25;39.75;;;;;7.96;70.36;101666.97;5027524;28;47293;-75
2021/11/12 06:29:32;;;;;;;;;53.25;41.25;;;;;7.90;70.31;101661.50;5027222;28;45606;-75
2021/11/12 06:31:57;;;;;;;;;52.75;40.75;;;;;7.96;70.18;101666.97;5030543;28;45552;-73
2021/11/12 06:34:23;;;;;;;;;46.75;38.50;;;;;7.97;70.20;101660.88;5021018;28;55517;-74
2021/11/12 06:36:48;;;;;;;;;48.25;41.25;;;;;7.88;69.92;101637.78;5025927;28;45471;-74
2021/11/12 06:39:14;;;;;;;;;48.25;40.00;;;;;7.93;70.14;101648.44;5023433;28;45721;-74
2021/11/12 06:52:18;;;;;;;;;45.50;38.50;;;;;7.74;70.15;101653.91;5026463;28;45500;-74
2021/11/12 06:54:46;;;;;;;;;48.75;39.50;;;;;7.76;70.15;101653.13;5025316;28;45461;-76
2021/11/12 06:57:13;;;;;;;;;52.50;44.00;;;;;7.77;70.14;101661.91;5028182;28;45409;-76
2021/11/12 06:59:39;;;;;;;;;53.25;37.25;;;;;7.74;70.14;101657.44;5023630;28;45523;-75
2021/11/12 07:02:06;;;;;;;;;42.50;37.75;;;;;7.76;70.05;101661.00;5026496;28;45221;-75
2021/11/12 07:04:32;;;;;;;;;59.00;41.25;;;;;7.83;70.16;101659.50;5019091;28;45684;-75
2021/11/12 07:06:58;;;;;;;;;55.50;40.50;;;;;7.84;70.28;101661.28;5027486;28;45476;-75
2021/11/12 07:09:23;;;;;;;;;53.75;38.75;;;;;7.85;70.25;101669.22;5033377;28;45575;-75
2021/11/12 07:11:49;;;;;;;;;43.75;38.25;;;;;7.87;70.16;101669.28;5033344;28;45894;-75
2021/11/12 07:14:15;;;;;;;;;55.75;40.25;;;;;7.87;70.24;101664.00;5028346;28;47504;-72
2021/11/12 07:16:40;;;;;;;;;47.50;40.25;;;;;7.86;70.11;101657.88;5025634;28;45489;-76
2021/11/12 07:19:05;;;;;;;;;55.25;43.25;;;;;7.84;70.07;101648.16;5037000;28;56258;-77
2021/11/12 07:21:31;;;;;;;;;58.00;43.75;;;;;7.84;70.06;101656.94;5035402;28;45400;-75
2021/11/12 07:23:56;;;;;;;;;51.00;40.50;;;;;7.80;70.23;101651.50;5019422;28;60285;-73
2021/11/12 07:26:22;;;;;;;;;56.00;40.25;;;;;7.78;70.28;101640.94;5032165;28;45262;-73
2021/11/12 07:28:49;;;;;;;;;49.00;39.75;;;;;7.80;70.21;101640.97;5026595;28;45259;-73
2021/11/12 07:31:16;;;;;;;;;40.00;34.75;;;;;7.82;70.27;101634.94;5031062;28;45345;-73
2021/11/12 07:33:43;;;;;;;;;55.50;40.00;;;;;7.78;70.19;101625.16;5023418;28;45713;-75
2021/11/12 07:36:24;;;;;;;;;50.75;37.75;;;;;7.83;70.50;101628.84;5023735;28;45466;-77
2021/11/12 07:44:18;;;;;;;;;49.25;37.50;;;;;7.83;69.94;101604.31;5019562;28;45408;-75
2021/11/12 07:49:11;;;;;;;;;43.25;37.75;;;;;7.84;70.22;101632.38;5024953;28;45372;-75
2021/11/12 07:51:38;;;;;;;;;56.00;37.25;;;;;7.82;70.36;101639.28;5026761;28;45560;-74
2021/11/12 07:54:04;;;;;;;;;44.50;30.75;;;;;7.84;70.40;101643.78;5030376;28;46551;-76
2021/11/12 07:56:30;;;;;;;;;44.75;36.25;;;;;7.90;70.11;101650.09;5026721;28;45327;-74
2021/11/12 07:58:55;;;;;;;;;50.75;34.25;;;;;7.94;70.29;101667.78;5026969;28;45400;-76
2021/11/12 08:01:21;;;;;;;;;41.75;34.75;;;;;7.95;70.44;101670.44;5027944;28;45424;-76
2021/11/12 08:03:50;;;;;;;;;45.00;35.00;;;;;7.95;70.41;101683.59;5035751;28;46361;-76
2021/11/12 08:06:17;;;;;;;;;51.00;42.00;;;;;7.96;70.38;101676.59;5030278;28;45504;-73
2021/11/12 08:08:49;;;;;;;;;48.75;40.50;;;;;8.03;69.99;101668.97;5028534;28;45357;-74
2021/11/12 08:11:17;;;;;;;;;56.50;42.00;;;;;8.03;70.14;101662.81;5027464;28;45636;-73
2021/11/12 08:13:54;;;;;;;;;52.75;42.50;;;;;8.05;69.99;101666.41;5032329;28;46533;-73
2021/11/12 08:19:05;;;;;;;;;46.50;35.75;;;;;8.08;70.17;101658.59;5021352;28;45491;-73
2021/11/12 08:22:14;;;;;;;;;47.25;34.50;;;;;8.08;69.72;101654.22;5024007;28;45222;-73
2021/11/12 08:27:04;;;;;;;;;45.25;37.50;;;;;8.11;69.93;101654.34;5026948;28;45441;-74
2021/11/12 08:42:36;;;;;;;;;50.25;38.00;;;;;8.21;70.12;101662.56;5021027;28;45405;-74
2021/11/12 08:45:25;;;;;;;;;54.00;37.00;;;;;8.21;70.08;101644.16;5017682;28;47414;-74
2021/11/12 08:48:15;;;;;;;;;48.75;37.75;;;;;8.27;69.94;101645.25;5019164;28;45459;-74
2021/11/12 08:50:37;;;;;;;;;56.50;41.25;;;;;8.28;69.87;101649.66;5016036;28;45504;-74
2021/11/12 08:53:13;;;;;;;;;41.50;37.50;;;;;8.29;69.83;101645.28;5026829;28;45273;-74
2021/11/12 08:55:39;;;;;;;;;58.25;42.25;;;;;8.32;69.77;101635.75;5022409;28;46229;-75
2021/11/12 08:58:06;;;;;;;;;49.75;39.75;;;;;8.36;69.78;101642.97;5019180;28;45399;-75
2021/11/12 09:00:33;;;;;;;;;58.50;45.75;;;;;8.39;69.75;101639.53;5028383;28;45613;-76
2021/11/12 09:02:58;;;;;;;;;61.50;43.25;;;;;8.40;69.84;101634.31;5031636;28;45678;-73
2021/11/12 09:05:24;;;;;;;;;46.00;34.75;;;;;8.42;69.47;101651.91;5024970;28;46688;-75
2021/11/12 09:07:50;;;;;;;;;52.50;40.00;;;;;8.39;69.52;101636.88;5026160;28;45425;-74
2021/11/12 09:10:16;;;;;;;;;53.00;41.00;;;;;8.46;69.93;101636.22;5027731;28;45306;-74
2021/11/12 09:12:45;;;;;;;;;55.25;41.25;;;;;8.49;69.61;101625.81;5023829;28;45475;-74
2021/11/12 09:15:21;;;;;;;;;44.50;37.50;;;;;8.53;69.73;101622.44;5028998;28;46444;-75
2021/11/12 09:17:47;;;;;;;;;57.25;42.50;;;;;8.47;69.39;101603.84;5034908;28;45437;-74
2021/11/12 09:20:13;;;;;;;;;59.00;44.50;;;;;8.55;69.86;101614.59;5022374;28;45436;-74
2021/11/12 09:22:38;;;;;;;;;57.00;42.50;;;;;8.62;69.64;101619.19;5035910;28;45520;-74
2021/11/12 09:25:04;;;;;;;;;48.25;43.00;;;;;8.65;69.71;101606.13;5030193;28;45595;-75
2021/11/12 09:27:30;;;;;;;;;50.00;41.25;;;;;8.68;69.74;101607.97;5021564;28;45854;-74
2021/11/12 09:29:56;;;;;;;;;45.75;37.75;;;;;8.72;69.87;101613.38;5019656;28;48727;-76
2021/11/12 09:32:22;;;;;;;;;55.50;41.75;;;;;8.77;69.52;101610.88;5018603;28;45295;-74
2021/11/12 09:34:47;;;;;;;;;49.75;39.00;;;;;8.80;69.29;101611.00;5029300;28;45582;-74
2021/11/12 09:37:19;;;;;;;;;45.25;40.00;;;;;8.82;69.46;101601.38;5035567;28;49847;-74
2021/11/12 09:39:47;;;;;;;;;45.50;39.50;;;;;8.85;69.37;101605.03;5029697;28;45759;-75
2021/11/12 09:42:13;;;;;;;;;40.75;35.50;;;;;8.87;69.23;101586.63;5007775;28;45553;-74
2021/11/12 09:44:39;;;;;;;;;45.50;37.00;;;;;8.91;69.04;101576.22;5025677;28;45754;-75
2021/11/12 09:47:04;;;;;;;;;51.00;39.25;;;;;8.93;69.14;101571.88;5027539;28;45521;-76
2021/11/12 09:49:29;;;;;;;;;49.50;37.75;;;;;8.97;69.17;101572.88;5029264;28;45402;-73
2021/11/12 09:51:55;;;;;;;;;44.50;37.50;;;;;9.00;68.76;101570.34;5032536;28;45704;-74
2021/11/12 09:54:21;;;;;;;;;57.25;41.25;;;;;9.01;68.79;101555.44;5026709;28;46669;-75
2021/11/12 09:56:46;;;;;;;;;38.75;35.50;;;;;9.10;68.93;101567.09;5031718;28;45215;-75
2021/11/12 09:59:12;;;;;;;;;48.75;35.75;;;;;9.15;68.88;101557.59;5038761;28;47145;-74
2021/11/12 10:01:40;;;;;;;;;47.25;37.75;;;;;9.21;68.96;101567.41;5039134;28;45505;-74
2021/11/12 10:04:08;;;;;;;;;55.25;40.50;;;;;9.26;68.66;101557.88;5035052;28;46410;-74
2021/11/12 10:06:34;;;;;;;;;48.50;38.00;;;;;9.33;68.84;101557.22;5031512;28;45416;-74
2021/11/12 10:09:00;;;;;;;;;49.75;38.75;;;;;9.40;68.59;101561.81;5020920;28;45196;-76
2021/11/12 10:11:33;;;;;;;;;42.25;36.25;;;;;9.44;68.36;101568.97;5031181;28;45639;-76
2021/11/12 10:14:04;;;;;;;;;47.50;40.50;;;;;9.52;68.32;101568.25;5031152;28;46549;-75
2021/11/12 10:16:37;;;;;;;;;42.75;36.50;;;;;9.55;67.90;101555.19;5022052;28;45469;-74
2021/11/12 10:19:17;;;;;;;;;58.00;38.25;;;;;9.65;68.30;101554.56;5030171;28;45520;-74
2021/11/12 10:21:47;;;;;;;;;50.25;39.00;;;;;9.70;67.82;101555.59;5023704;28;45298;-74
2021/11/12 10:24:30;;;;;;;;;51.25;39.00;;;;;9.76;68.33;101547.84;5027412;28;47439;-75
2021/11/12 10:27:00;;;;;;;;;48.50;38.00;;;;;9.81;67.62;101556.75;5028800;28;45472;-75
2021/11/12 10:29:34;;;;;;;;;50.25;39.75;;;;;9.83;67.62;101560.31;5037632;28;45381;-74
2021/11/12 10:32:05;;;;;;;;;42.75;38.25;;;;;9.83;67.65;101570.84;5038882;28;45332;-74
2021/11/12 10:34:33;;;;;;;;;45.75;33.25;;;;;9.86;67.48;101567.44;5038398;28;45630;-73
2021/11/12 10:37:01;;;;;;;;;47.25;38.75;;;;;9.88;67.39;101563.06;5021221;28;45274;-74
2021/11/12 10:39:31;;;;;;;;;45.25;38.00;;;;;9.90;67.02;101554.31;5029293;28;45501;-77
2021/11/12 10:41:57;;;;;;;;;45.50;35.50;;;;;9.90;67.10;101527.06;5020480;28;45206;-75
2021/11/12 10:44:23;;;;;;;;;42.50;36.00;;;;;9.91;67.10;101527.13;5026132;28;46668;-73
2021/11/12 10:46:48;;;;;;;;;47.50;36.75;;;;;9.91;66.99;101516.56;5026297;28;45500;-74
2021/11/12 10:49:31;;;;;;;;;45.25;39.00;;;;;9.93;66.88;101508.69;5026311;28;45481;-73
2021/11/12 10:52:03;;;;;;;;;53.50;39.00;;;;;9.92;67.07;101478.78;5023852;28;45440;-75
2021/11/12 10:54:38;;;;;;;;;42.75;38.00;;;;;10.02;67.25;101493.09;5029062;28;46566;-73
2021/11/12 10:57:04;;;;;;;;;40.25;34.75;;;;;10.06;66.88;101488.75;5025056;28;45472;-73
2021/11/12 10:59:30;;;;;;;;;49.50;37.75;;;;;10.10;66.31;101482.69;5033453;28;45428;-73
2021/11/12 11:01:55;;;;;;;;;55.50;43.00;;;;;10.13;66.85;101501.25;5016652;28;56420;-76
2021/11/12 11:04:24;;;;;;;;;51.75;39.25;;;;;10.19;66.46;101506.66;5029091;28;63169;-76
2021/11/12 11:06:50;;;;;;;;;47.00;39.25;;;;;10.22;66.24;101509.38;5000851;28;45359;-74
2021/11/12 11:09:16;;;;;;;;;44.50;36.50;;;;;10.22;65.89;101489.13;5017922;28;45408;-75
2021/11/12 11:11:42;;;;;;;;;50.00;39.25;;;;;10.30;66.23;101485.84;5017115;28;45477;-74
2021/11/12 11:14:29;;;;;;;;;45.00;37.75;;;;;10.33;66.07;101485.88;5025418;28;47439;-74
2021/11/12 11:16:56;;;;;;;;;43.75;37.00;;;;;10.37;66.09;101493.03;5019276;28;45349;-75
2021/11/12 11:19:33;;;;;;;;;50.50;40.75;;;;;10.39;66.10;101491.34;5024055;28;45576;-72
2021/11/12 11:22:03;;;;;;;;;50.25;37.75;;;;;10.42;66.08;101494.03;5033643;28;45547;-75
2021/11/12 11:24:32;;;;;;;;;49.75;37.75;;;;;10.45;65.78;101496.75;5020576;28;46671;-74
2021/11/12 11:26:58;;;;;;;;;47.25;36.00;;;;;10.46;65.95;101480.94;5028806;28;45221;-72
2021/11/12 11:29:23;;;;;;;;;48.00;40.00;;;;;10.45;65.67;101465.06;5032937;28;45210;-75
2021/11/12 11:31:50;;;;;;;;;50.75;38.25;;;;;10.54;65.67;101481.06;5028655;28;45551;-74
2021/11/12 11:34:17;;;;;;;;;53.00;38.00;;;;;10.56;65.48;101486.41;5018881;28;46685;-73
2021/11/12 11:36:45;;;;;;;;;42.50;38.25;;;;;10.61;65.84;101497.97;5021868;28;45382;-76
2021/11/12 11:39:13;;;;;;;;;46.50;39.50;;;;;10.65;66.12;101487.50;5035458;28;45553;-75
2021/11/12 11:41:38;;;;;;;;;42.25;34.75;;;;;10.69;65.38;101485.81;5026353;28;45223;-73
2021/11/12 11:44:05;;;;;;;;;51.25;37.50;;;;;10.70;65.66;101488.47;5024736;28;46237;-75
2021/11/12 11:46:36;;;;;;;;;55.50;40.75;;;;;10.81;64.98;101493.97;5019093;28;45566;-74
2021/11/12 11:49:02;;;;;;;;;45.00;36.75;;;;;10.87;65.26;101488.84;5029761;28;45560;-74
2021/11/12 11:51:33;;;;;;;;;48.00;38.50;;;;;10.96;65.28;101485.47;5019889;28;45228;-74
2021/11/12 11:54:06;;;;;;;;;43.75;37.00;;;;;11.08;64.85;101471.59;5021884;28;47615;-77
2021/11/12 11:56:38;;;;;;;;;45.00;38.00;;;;;11.18;64.38;101462.97;5021623;28;45517;-74
2021/11/12 11:59:17;;;;;;;;;47.50;38.75;;;;;11.31;64.21;101454.44;5032012;28;45200;-74
2021/11/12 12:01:52;;;;;;;;;46.00;35.75;;;;;11.43;64.62;101446.72;5016393;28;45408;-73
2021/11/12 12:04:18;;;;;;;;;47.00;38.25;;;;;11.53;63.91;101451.28;5026868;28;47722;-74
2021/11/12 12:07:02;;;;;;;;;47.50;37.50;;;;;11.63;64.08;101439.13;5017074;28;45278;-74
2021/11/12 12:09:59;;;;;;;;;39.75;36.25;;;;;11.72;64.14;101430.44;5016025;28;45344;-74
2021/11/12 12:12:31;;;;;;;;;47.75;39.75;;;;;11.80;64.08;101431.44;5017257;28;45624;-74
2021/11/12 12:15:05;;;;;;;;;45.50;35.00;;;;;11.88;63.90;101424.56;5027460;28;47864;-76
2021/11/12 12:17:44;;;;;;;;;39.25;34.50;;;;;11.95;63.75;101425.53;5032092;28;45568;-74
2021/11/12 13:24:59;;;;;;;;;28.50;24.75;;;;;12.18;62.92;101335.84;5028455;28;45432;-75
2021/11/12 13:27:17;;;;;;;;;27.75;26.25;;;;;12.23;63.45;101331.50;5024725;28;45338;-74
2021/11/12 13:29:43;;;;;;;;;30.00;23.50;;;;;12.25;63.56;101319.16;5018267;28;46447;-74
2021/11/12 13:32:08;;;;;;;;;23.25;23.25;;;;;12.18;61.94;101306.72;5023029;28;47462;-74
2021/11/12 13:34:42;;;;;;;;;24.50;21.75;;;;;12.27;63.27;101318.31;5023533;28;45314;-75
2021/11/12 13:37:24;;;;;;;;;19.00;17.75;;;;;12.31;62.76;101324.56;5022132;28;45618;-74
2021/11/12 13:40:04;;;;;;;;;27.00;23.50;;;;;12.37;63.77;101315.78;5030401;28;45441;-74
2021/11/12 13:42:47;;;;;;;;;28.75;22.25;;;;;12.39;63.71;101314.03;5039195;28;46698;-75
2021/11/12 13:45:16;;;;;;;;;24.00;18.25;;;;;12.31;63.25;101292.78;5038175;28;45334;-73
2021/11/12 13:47:42;;;;;;;;;20.50;17.75;;;;;12.44;63.60;101299.97;5019384;28;45465;-74
2021/11/12 13:50:08;;;;;;;;;16.00;16.00;;;;;12.51;62.50;101298.25;5021377;28;45262;-73
2021/11/12 13:52:42;;;;;;;;;20.00;18.00;;;;;12.55;63.06;101289.47;5023275;28;46362;-74
2021/11/12 13:55:13;;;;;;;;;22.75;19.00;;;;;12.67;63.66;101304.59;5018941;28;45621;-73
2021/11/12 13:57:38;;;;;;;;;19.00;15.33;;;;;12.71;62.84;101304.66;5019580;28;45342;-73
2021/11/12 14:00:06;;;;;;;;;19.67;15.33;;;;;12.73;62.51;101302.94;5027277;28;45224;-74
2021/11/12 14:03:06;;;;;;;;;20.00;18.33;;;;;12.75;63.11;101292.34;5035465;28;47600;-73
2021/11/12 14:05:35;;;;;;;;;23.33;20.00;;;;;12.67;63.47;101279.00;5026427;28;45297;-74
2021/11/12 14:08:07;;;;;;;;;27.00;18.33;;;;;12.70;62.83;101273.75;5019122;28;45783;-73
2021/11/12 14:10:40;;;;;;;;;22.33;16.33;;;;;12.69;63.08;101274.63;5019177;28;45511;-74
2021/11/12 14:13:06;;;;;;;;;20.00;17.00;;;;;12.64;63.33;101271.03;5031281;28;46676;-73
2021/11/12 14:15:44;;;;;;;;;20.67;20.00;;;;;12.68;63.54;101277.28;5032344;28;45374;-74
2021/11/12 14:18:33;;;;;;;;;18.00;14.33;;;;;12.68;63.30;101277.28;5018183;28;45225;-73
2021/11/12 14:21:10;;;;;;;;;18.00;16.67;;;;;12.67;63.48;101275.47;5021503;28;45786;-73
2021/11/12 14:27:30;;;;;;;;;19.33;17.67;;;;;12.67;63.60;101267.50;5011876;28;45577;-74
2021/11/12 14:46:23;;;;;;;;;40.25;36.00;;;;;12.53;64.75;101263.00;5024536;28;46580;-73
2021/11/12 14:49:10;;;;;;;;;24.00;24.00;;;;;12.47;64.09;101243.50;5018428;28;45342;-73
2021/11/12 14:51:39;;;;;;;;;24.33;18.00;;;;;12.54;64.13;101259.47;5029928;28;45513;-74
2021/11/12 14:54:07;;;;;;;;;18.67;18.00;;;;;12.58;64.23;101252.44;5032636;28;45295;-75
2021/11/12 14:56:32;;;;;;;;;25.50;16.75;;;;;12.59;64.24;101256.88;5026495;28;47359;-73
2021/11/12 14:59:06;;;;;;;;;20.33;17.00;;;;;12.63;64.00;101263.09;5017797;28;45195;-74
2021/11/12 15:01:33;;;;;;;;;17.00;13.67;;;;;12.67;63.80;101270.16;5025973;28;45353;-73
2021/11/12 15:03:58;;;;;;;;;17.00;14.00;;;;;12.68;63.45;101270.22;5025839;28;45207;-74
2021/11/12 15:06:25;;;;;;;;;17.00;14.00;;;;;12.72;64.13;101284.34;5020723;28;47481;-74
2021/11/12 15:08:57;;;;;;;;;10.67;10.67;;;;;12.72;63.42;101255.19;5017765;28;45394;-73
2021/11/12 15:11:25;;;;;;;;;15.67;15.00;;;;;12.79;63.50;101260.59;5025531;28;45458;-73
2021/11/12 15:13:52;;;;;;;;;15.00;13.33;;;;;12.78;63.66;101256.16;5028799;28;45945;-73
2021/11/12 15:16:26;;;;;;;;;12.00;11.00;;;;;12.83;63.54;101256.19;5017848;28;47382;-73
2021/11/12 15:18:55;;;;;;;;;15.33;13.67;;;;;12.80;63.82;101256.16;5017711;28;45361;-74
2021/11/12 15:21:28;;;;;;;;;15.33;14.33;;;;;12.75;64.17;101249.94;5025856;28;45307;-74
2021/11/12 15:24:05;;;;;;;;;15.33;15.00;;;;;12.68;64.38;101259.59;5024312;28;46658;-75
2021/11/12 15:31:38;;;;;;;;;13.67;12.67;;;;;12.61;64.73;101272.75;5022056;28;45472;-74
2021/11/12 15:34:05;;;;;;;;;15.67;13.67;;;;;12.52;65.04;101261.22;5021672;28;45386;-74
2021/11/12 15:36:33;;;;;;;;;14.33;14.33;;;;;12.52;64.82;101277.13;5031401;28;47530;-74
2021/11/12 15:39:08;;;;;;;;;17.00;15.00;;;;;12.49;64.90;101269.13;5025158;28;45282;-73
2021/11/12 15:44:20;;;;;;;;;19.00;18.00;;;;;12.49;65.18;101289.44;5018272;28;45289;-74
2021/11/12 15:46:48;;;;;;;;;18.33;14.00;;;;;12.48;65.53;101290.31;5025376;28;45706;-73
2021/11/12 15:49:23;;;;;;;;;18.67;17.67;;;;;12.45;65.16;101292.91;5036464;28;45448;-73
2021/11/12 15:51:56;;;;;;;;;19.00;14.00;;;;;12.29;65.38;101260.97;5024637;28;45469;-73
2021/11/12 15:54:32;;;;;;;;;15.00;13.67;;;;;12.38;65.52;101286.66;5023854;28;45393;-75
2021/11/12 16:05:09;;;;;;;;;19.00;14.67;;;;;12.20;65.84;101290.00;5029501;23;45733;-74
2021/11/12 16:12:55;;;;;;;;;18.00;18.00;;;;;12.04;66.33;101291.56;5015582;28;45224;-73
2021/11/12 16:17:50;;;;;;;;;20.67;16.00;;;;;12.02;66.61;101298.59;5006372;28;46645;-73
2021/11/12 16:25:48;;;;;;;;;24.00;19.50;;;;;11.97;66.90;101296.75;5006332;28;45545;-74
2021/11/12 16:28:19;;;;;;;;;15.67;14.33;;;;;11.97;66.96;101302.06;5009818;28;46665;-74
2021/11/12 16:30:49;;;;;;;;;22.33;17.00;;;;;11.95;67.11;101296.75;5006804;28;45438;-74
2021/11/12 16:33:14;;;;;;;;;22.67;16.00;;;;;11.93;67.21;101293.22;5004723;28;45440;-73
2021/11/12 16:35:42;;;;;;;;;24.67;19.67;;;;;11.91;67.18;101294.91;5011387;28;45578;-73
2021/11/12 16:38:19;;;;;;;;;24.33;20.00;;;;;11.87;67.44;101294.84;5007481;28;45775;-73
2021/11/12 16:40:49;;;;;;;;;26.67;23.67;;;;;11.85;67.45;101283.38;5009727;28;45506;-74
2021/11/12 16:59:01;;;;;;;;;31.25;27.00;;;;;11.84;67.98;101285.13;5012946;28;46468;-74
2021/11/12 17:07:14;;;;;;;;;33.50;29.50;;;;;11.87;68.01;101269.28;5013309;28;45369;-74
2021/11/12 17:10:05;;;;;;;;;39.75;32.25;;;;;11.83;68.22;101263.97;5007736;28;46612;-75
2021/11/12 17:47:47;;;;;;;;;34.75;29.00;;;;;12.06;68.34;101238.66;5014858;28;47087;-74
2021/11/12 18:03:37;;;;;;;;;29.50;25.00;;;;;12.26;68.15;101233.59;5017034;28;45774;-74
2021/11/12 18:06:21;;;;;;;;;29.50;26.75;;;;;12.34;67.82;101239.81;5011785;28;45482;-73